createdAt,value
2018-05-01T00:01:33.423Z,0.60
2018-05-01T00:04:02.241Z,0.60
2018-05-01T00:06:30.292Z,0.67
2018-05-01T00:08:58.397Z,0.60
2018-05-01T00:11:26.466Z,0.87
2018-05-01T00:13:54.922Z,0.70
2018-05-01T00:16:23.008Z,1.97
2018-05-01T00:18:51.438Z,1.20
2018-05-01T00:21:19.478Z,0.50
2018-05-01T00:23:47.558Z,0.60
2018-05-01T00:26:15.609Z,0.60
2018-05-01T00:28:43.684Z,0.60
2018-05-01T00:31:13.357Z,0.80
2018-05-01T00:33:42.937Z,0.40
2018-05-01T00:36:11.363Z,0.40
2018-05-01T00:38:40.408Z,0.60
2018-05-01T00:41:08.437Z,0.60
2018-05-01T00:43:36.489Z,0.50
2018-05-01T00:46:04.529Z,0.60
2018-05-01T00:48:32.610Z,0.60
2018-05-01T00:51:01.433Z,0.60
2018-05-01T00:53:29.497Z,0.63
2018-05-01T00:55:57.578Z,0.47
2018-05-01T00:58:28.493Z,0.50
2018-05-01T01:01:00.901Z,0.50
2018-05-01T01:03:34.181Z,0.47
2018-05-01T01:06:03.079Z,1.00
2018-05-01T01:08:32.303Z,0.40
2018-05-01T01:11:03.810Z,0.40
2018-05-01T01:13:33.206Z,0.40
2018-05-01T01:16:02.127Z,0.83
2018-05-01T01:18:31.606Z,0.50
2018-05-01T01:21:04.513Z,0.60
2018-05-01T01:23:32.535Z,0.60
2018-05-01T01:26:01.396Z,0.40
2018-05-01T01:28:29.564Z,0.50
2018-05-01T01:30:57.588Z,0.53
2018-05-01T01:33:25.658Z,0.63
2018-05-01T01:35:54.043Z,0.63
2018-05-01T01:38:22.350Z,0.50
2018-05-01T01:40:49.908Z,0.70
2018-05-01T01:43:17.557Z,0.60
2018-05-01T01:45:45.799Z,0.50
2018-05-01T01:48:14.226Z,0.40
2018-05-01T01:50:41.793Z,0.60
2018-05-01T01:53:10.196Z,0.60
2018-05-01T01:55:37.779Z,0.80
2018-05-01T01:58:06.162Z,0.50
2018-05-01T02:00:33.776Z,0.40
2018-05-01T02:03:01.317Z,0.70
2018-05-01T02:05:28.888Z,0.40
2018-05-01T02:07:56.546Z,0.63
2018-05-01T02:10:24.106Z,0.70
2018-05-01T02:12:51.658Z,0.60
2018-05-01T02:15:19.210Z,0.70
2018-05-01T02:17:46.781Z,0.77
2018-05-01T02:20:14.366Z,0.80
2018-05-01T02:22:41.929Z,0.70
2018-05-01T02:25:10.632Z,0.80
2018-05-01T02:27:38.166Z,0.57
2018-05-01T02:30:06.572Z,0.47
2018-05-01T02:32:34.577Z,0.50
2018-05-01T02:35:02.153Z,0.50
2018-05-01T02:37:29.748Z,0.40
2018-05-01T02:39:58.811Z,0.50
2018-05-01T02:42:27.300Z,0.73
2018-05-01T02:44:54.859Z,0.53
2018-05-01T02:47:22.511Z,0.40
2018-05-01T02:49:50.092Z,0.63
2018-05-01T02:52:17.652Z,0.30
2018-05-01T02:54:45.227Z,0.77
2018-05-01T02:57:12.795Z,0.60
2018-05-01T02:59:40.350Z,0.40
2018-05-01T03:02:08.694Z,0.60
2018-05-01T03:04:36.711Z,0.57
2018-05-01T03:07:04.647Z,0.40
2018-05-01T03:09:33.127Z,0.43
2018-05-01T03:12:01.110Z,0.70
2018-05-01T03:14:29.035Z,0.40
2018-05-01T03:16:57.363Z,0.70
2018-05-01T03:19:24.954Z,0.50
2018-05-01T03:21:52.511Z,0.53
2018-05-01T03:24:20.551Z,0.50
2018-05-01T03:26:48.803Z,0.40
2018-05-01T03:29:16.368Z,0.50
2018-05-01T03:31:43.974Z,0.40
2018-05-01T03:34:11.569Z,0.40
2018-05-01T03:36:39.943Z,0.90
2018-05-01T03:39:07.605Z,0.47
2018-05-01T03:41:35.079Z,0.47
2018-05-01T03:44:02.647Z,0.30
2018-05-01T03:46:30.195Z,0.60
2018-05-01T03:48:57.810Z,0.30
2018-05-01T03:51:25.317Z,0.50
2018-05-01T03:53:52.977Z,0.67
2018-05-01T03:56:20.637Z,0.33
2018-05-01T03:58:48.955Z,0.47
2018-05-01T04:01:17.300Z,0.80
2018-05-01T04:03:44.846Z,0.43
2018-05-01T04:06:12.432Z,0.50
2018-05-01T04:08:39.964Z,0.40
2018-05-01T04:11:07.503Z,0.30
2018-05-01T04:13:35.073Z,0.47
2018-05-01T04:16:02.630Z,0.40
2018-05-01T04:18:30.198Z,0.70
2018-05-01T04:20:57.752Z,0.50
2018-05-01T04:23:25.325Z,0.30
2018-05-01T04:25:52.878Z,0.73
2018-05-01T04:28:20.448Z,0.57
2018-05-01T04:30:48.031Z,0.40
2018-05-01T04:33:15.594Z,0.50
2018-05-01T04:35:43.174Z,0.40
2018-05-01T04:38:10.771Z,0.40
2018-05-01T04:40:38.421Z,0.50
2018-05-01T04:43:05.997Z,0.50
2018-05-01T04:45:33.558Z,0.50
2018-05-01T04:48:01.130Z,0.40
2018-05-01T04:50:28.708Z,0.40
2018-05-01T04:52:56.321Z,0.30
2018-05-01T04:55:23.891Z,0.57
2018-05-01T04:57:51.519Z,0.33
2018-05-01T05:00:19.821Z,0.50
2018-05-01T05:02:47.382Z,0.50
2018-05-01T05:05:14.959Z,0.73
2018-05-01T05:07:42.540Z,0.30
2018-05-01T05:10:10.167Z,0.50
2018-05-01T05:12:37.755Z,0.77
2018-05-01T05:15:05.344Z,0.40
2018-05-01T05:17:33.325Z,0.50
2018-05-01T05:20:01.636Z,0.47
2018-05-01T05:22:29.190Z,0.40
2018-05-01T05:24:56.755Z,0.47
2018-05-01T05:27:24.331Z,0.40
2018-05-01T05:29:52.006Z,0.50
2018-05-01T05:32:19.570Z,0.40
2018-05-01T05:34:47.325Z,0.50
2018-05-01T05:37:14.891Z,0.50
2018-05-01T05:39:42.419Z,0.40
2018-05-01T05:42:10.004Z,0.60
2018-05-01T05:44:38.305Z,0.40
2018-05-01T05:47:06.650Z,0.37
2018-05-01T05:49:34.208Z,0.50
2018-05-01T05:52:01.799Z,0.40
2018-05-01T05:54:30.119Z,0.40
2018-05-01T05:56:57.716Z,0.40
2018-05-01T05:59:25.305Z,0.37
2018-05-01T06:01:52.827Z,0.40
2018-05-01T06:04:20.374Z,0.50
2018-05-01T06:06:47.960Z,0.40
2018-05-01T06:09:15.527Z,0.40
2018-05-01T06:11:43.499Z,0.40
2018-05-01T06:14:11.906Z,0.40
2018-05-01T06:16:40.155Z,0.43
2018-05-01T06:19:08.513Z,0.40
2018-05-01T06:21:36.064Z,0.30
2018-05-01T06:24:03.650Z,0.60
2018-05-01T06:26:32.007Z,0.60
2018-05-01T06:28:59.554Z,0.77
2018-05-01T06:31:27.267Z,0.63
2018-05-01T06:33:54.816Z,0.50
2018-05-01T06:36:23.137Z,0.60
2018-05-01T06:38:50.683Z,0.37
2018-05-01T06:41:18.283Z,0.60
2018-05-01T06:43:45.843Z,0.63
2018-05-01T06:46:13.394Z,0.40
2018-05-01T06:48:40.957Z,0.50
2018-05-01T06:51:08.510Z,0.50
2018-05-01T06:53:36.105Z,0.50
2018-05-01T06:56:03.642Z,0.60
2018-05-01T06:58:31.224Z,0.60
2018-05-01T07:00:59.665Z,0.73
2018-05-01T07:03:27.211Z,0.73
2018-05-01T07:05:54.788Z,0.60
2018-05-01T07:08:22.376Z,0.70
2018-05-01T07:10:49.963Z,0.70
2018-05-01T07:13:17.479Z,1.00
2018-05-01T07:15:45.084Z,0.90
2018-05-01T07:18:12.580Z,1.17
2018-05-01T07:20:40.151Z,0.77
2018-05-01T07:23:07.695Z,1.50
2018-05-01T07:25:35.250Z,1.17
2018-05-01T07:28:02.834Z,0.90
2018-05-01T07:30:30.405Z,1.47
2018-05-01T07:32:57.967Z,1.00
2018-05-01T07:35:25.791Z,1.20
2018-05-01T07:40:27.400Z,1.00
2018-05-01T07:42:54.938Z,1.37
2018-05-01T07:45:22.525Z,1.53
2018-05-01T07:47:50.199Z,1.47
2018-05-01T07:50:17.706Z,2.00
2018-05-01T07:52:45.680Z,2.00
2018-05-01T07:55:13.244Z,2.20
2018-05-01T07:57:40.824Z,2.20
2018-05-01T08:00:09.978Z,2.50
2018-05-01T08:02:37.483Z,1.93
2018-05-01T08:05:05.018Z,2.03
2018-05-01T08:07:32.604Z,2.60
2018-05-01T08:10:01.668Z,2.53
2018-05-01T08:12:29.255Z,2.70
2018-05-01T08:14:56.811Z,3.40
2018-05-01T08:17:24.362Z,2.90
2018-05-01T08:19:53.093Z,2.80
2018-05-01T08:22:21.434Z,2.97
2018-05-01T08:24:50.601Z,2.70
2018-05-01T08:27:18.192Z,3.10
2018-05-01T08:29:45.752Z,2.97
2018-05-01T08:32:13.325Z,3.27
2018-05-01T08:34:41.650Z,3.30
2018-05-01T08:37:09.233Z,2.70
2018-05-01T08:39:36.770Z,2.67
2018-05-01T08:42:05.086Z,2.80
2018-05-01T08:44:33.423Z,3.30
2018-05-01T08:47:00.983Z,3.50
2018-05-01T08:49:28.562Z,3.30
2018-05-01T08:51:56.105Z,3.83
2018-05-01T08:54:23.659Z,4.17
2018-05-01T08:56:51.231Z,3.30
2018-05-01T08:59:18.818Z,3.50
2018-05-01T09:01:46.360Z,3.53
2018-05-01T09:04:14.022Z,4.00
2018-05-01T09:06:41.569Z,4.13
2018-05-01T09:09:10.777Z,4.77
2018-05-01T09:11:38.230Z,3.73
2018-05-01T09:14:05.749Z,4.77
2018-05-01T09:16:33.332Z,5.10
2018-05-01T09:19:00.870Z,4.93
2018-05-01T09:21:28.441Z,4.60
2018-05-01T09:23:56.013Z,5.13
2018-05-01T09:26:23.975Z,4.97
2018-05-01T09:28:51.568Z,4.60
2018-05-01T09:31:19.146Z,4.87
2018-05-01T09:33:47.505Z,5.13
2018-05-01T09:36:15.440Z,5.47
2018-05-01T09:38:42.997Z,5.90
2018-05-01T09:41:10.560Z,5.23
2018-05-01T09:43:38.205Z,4.50
2018-05-01T09:46:05.915Z,4.20
2018-05-01T09:48:33.440Z,4.43
2018-05-01T09:51:01.789Z,5.10
2018-05-01T09:53:30.614Z,5.10
2018-05-01T09:55:58.664Z,5.30
2018-05-01T09:58:26.742Z,5.27
2018-05-01T10:00:54.887Z,4.37
2018-05-01T10:03:24.064Z,3.90
2018-05-01T10:05:52.093Z,5.07
2018-05-01T10:08:21.532Z,4.50
2018-05-01T10:10:49.577Z,5.00
2018-05-01T10:13:18.974Z,4.60
2018-05-01T10:15:47.343Z,5.00
2018-05-01T10:18:15.374Z,5.67
2018-05-01T10:20:44.202Z,5.03
2018-05-01T10:23:12.278Z,5.57
2018-05-01T10:25:40.323Z,5.03
2018-05-01T10:28:09.181Z,4.80
2018-05-01T10:30:37.212Z,4.80
2018-05-01T10:33:05.277Z,5.03
2018-05-01T10:35:33.322Z,4.50
2018-05-01T10:38:02.144Z,4.83
2018-05-01T10:40:30.198Z,4.90
2018-05-01T10:42:58.654Z,4.53
2018-05-01T10:45:27.460Z,4.67
2018-05-01T10:47:55.496Z,5.13
2018-05-01T10:50:23.602Z,4.70
2018-05-01T10:52:52.398Z,4.07
2018-05-01T10:55:20.446Z,4.87
2018-05-01T10:57:49.266Z,5.30
2018-05-01T11:00:17.321Z,4.60
2018-05-01T11:02:46.280Z,5.00
2018-05-01T11:05:14.339Z,4.60
2018-05-01T11:07:42.361Z,8.10
2018-05-01T11:10:10.433Z,4.63
2018-05-01T11:12:39.223Z,4.03
2018-05-01T11:15:07.294Z,4.57
2018-05-01T11:17:35.460Z,7.30
2018-05-01T11:20:03.434Z,4.50
2018-05-01T11:22:31.498Z,4.90
2018-05-01T11:24:59.567Z,4.80
2018-05-01T11:27:27.625Z,4.40
2018-05-01T11:29:56.431Z,4.70
2018-05-01T11:32:24.496Z,4.70
2018-05-01T11:34:53.346Z,4.43
2018-05-01T11:37:21.411Z,7.03
2018-05-01T11:39:49.493Z,5.70
2018-05-01T11:42:17.582Z,12.20
2018-05-01T11:44:45.631Z,4.00
2018-05-01T11:47:13.682Z,4.80
2018-05-01T11:49:41.741Z,5.60
2018-05-01T11:52:09.778Z,5.30
2018-05-01T11:54:38.626Z,6.10
2018-05-01T11:57:06.687Z,8.97
2018-05-01T11:59:34.749Z,5.50
2018-05-01T12:02:02.788Z,5.40
2018-05-01T12:04:31.606Z,4.27
2018-05-01T12:06:59.684Z,4.83
2018-05-01T12:09:27.761Z,4.73
2018-05-01T12:11:55.823Z,4.70
2018-05-01T12:14:23.880Z,5.00
2018-05-01T12:16:51.935Z,4.60
2018-05-01T12:19:20.042Z,4.27
2018-05-01T12:21:48.127Z,4.13
2018-05-01T12:24:16.179Z,3.90
2018-05-01T12:26:44.230Z,4.90
2018-05-01T12:29:12.304Z,3.60
2018-05-01T12:31:40.361Z,4.10
2018-05-01T12:34:09.191Z,3.80
2018-05-01T12:36:37.363Z,3.97
2018-05-01T12:39:05.353Z,7.10
2018-05-01T12:41:33.440Z,5.17
2018-05-01T12:44:02.937Z,5.80
2018-05-01T12:46:30.906Z,10.40
2018-05-01T12:48:58.971Z,4.60
2018-05-01T12:51:27.014Z,4.77
2018-05-01T12:53:55.173Z,8.50
2018-05-01T12:56:24.001Z,5.60
2018-05-01T12:58:52.822Z,9.70
2018-05-01T13:01:21.653Z,6.33
2018-05-01T13:03:49.713Z,6.10
2018-05-01T13:06:17.808Z,4.00
2018-05-01T13:08:45.836Z,4.57
2018-05-01T13:11:14.702Z,6.00
2018-05-01T13:13:42.742Z,3.90
2018-05-01T13:16:10.788Z,4.87
2018-05-01T13:18:38.868Z,4.60
2018-05-01T13:21:06.916Z,4.40
2018-05-01T13:23:35.805Z,5.80
2018-05-01T13:26:03.804Z,3.13
2018-05-01T13:28:31.882Z,3.60
2018-05-01T13:30:59.916Z,4.23
2018-05-01T13:33:27.989Z,4.30
2018-05-01T13:35:56.015Z,4.93
2018-05-01T13:38:24.063Z,6.10
2018-05-01T13:40:52.132Z,4.30
2018-05-01T13:43:20.198Z,4.23
2018-05-01T13:45:48.261Z,3.50
2018-05-01T13:48:16.329Z,4.00
2018-05-01T13:50:44.398Z,3.97
2018-05-01T13:53:12.451Z,4.50
2018-05-01T13:55:41.912Z,4.50
2018-05-01T13:58:09.891Z,5.23
2018-05-01T14:00:37.927Z,4.60
2018-05-01T14:03:06.019Z,5.10
2018-05-01T14:05:34.065Z,4.00
2018-05-01T14:08:02.126Z,5.50
2018-05-01T14:10:30.678Z,4.87
2018-05-01T14:12:59.534Z,8.67
2018-05-01T14:15:28.138Z,8.33
2018-05-01T14:17:56.184Z,6.67
2018-05-01T14:20:24.216Z,6.90
2018-05-01T14:22:53.038Z,5.20
2018-05-01T14:25:21.114Z,6.30
2018-05-01T14:27:49.147Z,5.00
2018-05-01T14:30:17.210Z,4.60
2018-05-01T14:32:46.030Z,5.53
2018-05-01T14:35:14.090Z,4.30
2018-05-01T14:37:42.132Z,5.00
2018-05-01T14:40:10.948Z,4.60
2018-05-01T14:42:38.995Z,5.57
2018-05-01T14:45:07.937Z,4.97
2018-05-01T14:47:37.084Z,4.20
2018-05-01T14:50:06.275Z,5.10
2018-05-01T14:52:35.179Z,5.27
2018-05-01T14:55:03.224Z,4.90
2018-05-01T14:57:31.251Z,5.00
2018-05-01T15:00:00.517Z,4.37
2018-05-01T15:02:28.598Z,4.20
2018-05-01T15:04:56.615Z,4.53
2018-05-01T15:07:24.662Z,5.20
2018-05-01T15:09:52.707Z,4.97
2018-05-01T15:12:20.780Z,4.60
2018-05-01T15:14:48.806Z,4.60
2018-05-01T15:17:17.022Z,3.97
2018-05-01T15:19:45.812Z,4.40
2018-05-01T15:22:13.882Z,4.50
2018-05-01T15:24:41.934Z,3.70
2018-05-01T15:27:10.755Z,4.00
2018-05-01T15:29:38.825Z,3.90
2018-05-01T15:32:07.643Z,4.30
2018-05-01T15:34:35.695Z,3.87
2018-05-01T15:37:03.745Z,4.43
2018-05-01T15:39:31.808Z,3.67
2018-05-01T15:42:00.652Z,4.03
2018-05-01T15:44:28.681Z,4.20
2018-05-01T15:46:56.750Z,5.80
2018-05-01T15:49:24.812Z,4.47
2018-05-01T15:51:52.883Z,4.53
2018-05-01T15:54:20.932Z,5.37
2018-05-01T15:56:49.025Z,3.90
2018-05-01T15:59:17.034Z,4.13
2018-05-01T16:01:45.089Z,3.80
2018-05-01T16:04:13.137Z,3.47
2018-05-01T16:06:41.235Z,4.57
2018-05-01T16:09:09.246Z,3.33
2018-05-01T16:11:37.283Z,3.57
2018-05-01T16:14:05.431Z,2.97
2018-05-01T16:16:33.392Z,5.00
2018-05-01T16:19:01.430Z,4.17
2018-05-01T16:21:29.527Z,3.57
2018-05-01T16:23:58.453Z,3.83
2018-05-01T16:26:27.243Z,4.40
2018-05-01T16:28:55.313Z,3.60
2018-05-01T16:31:23.390Z,3.20
2018-05-01T16:33:52.198Z,4.07
2018-05-01T16:36:20.241Z,4.03
2018-05-01T16:38:48.264Z,5.30
2018-05-01T16:41:17.141Z,3.50
2018-05-01T16:43:45.179Z,3.90
2018-05-01T16:46:13.213Z,3.70
2018-05-01T16:48:42.067Z,3.53
2018-05-01T16:51:10.104Z,3.90
2018-05-01T16:53:38.182Z,4.40
2018-05-01T16:56:06.245Z,3.30
2018-05-01T16:58:34.320Z,3.80
2018-05-01T17:01:03.114Z,3.70
2018-05-01T17:03:31.163Z,4.67
2018-05-01T17:06:00.030Z,3.87
2018-05-01T17:08:28.082Z,3.30
2018-05-01T17:10:56.096Z,4.27
2018-05-01T17:13:24.169Z,3.87
2018-05-01T17:15:52.246Z,4.50
2018-05-01T17:18:20.306Z,3.87
2018-05-01T17:20:48.337Z,3.87
2018-05-01T17:23:16.423Z,4.13
2018-05-01T17:25:48.587Z,4.70
2018-05-01T17:28:17.419Z,5.00
2018-05-01T17:30:45.455Z,4.90
2018-05-01T17:33:14.301Z,5.80
2018-05-01T17:35:42.357Z,4.63
2018-05-01T17:38:10.398Z,4.50
2018-05-01T17:40:39.250Z,5.63
2018-05-01T17:43:07.326Z,3.93
2018-05-01T17:45:35.810Z,4.13
2018-05-01T17:48:03.829Z,4.50
2018-05-01T17:50:31.917Z,4.27
2018-05-01T17:52:59.977Z,4.80
2018-05-01T17:55:28.792Z,4.67
2018-05-01T17:57:56.877Z,5.17
2018-05-01T18:00:24.942Z,5.40
2018-05-01T18:02:53.016Z,5.33
2018-05-01T18:05:21.030Z,5.03
2018-05-01T18:07:49.145Z,5.70
2018-05-01T18:10:17.182Z,5.93
2018-05-01T18:12:45.230Z,5.97
2018-05-01T18:15:14.055Z,5.00
2018-05-01T18:17:42.130Z,5.70
2018-05-01T18:20:10.211Z,6.20
2018-05-01T18:22:38.263Z,5.43
2018-05-01T18:25:06.334Z,4.63
2018-05-01T18:27:34.407Z,4.90
2018-05-01T18:30:02.487Z,5.17
2018-05-01T18:32:30.585Z,3.97
2018-05-01T18:34:58.630Z,4.67
2018-05-01T18:37:26.663Z,3.93
2018-05-01T18:39:55.558Z,4.60
2018-05-01T18:42:24.337Z,9.60
2018-05-01T18:44:53.170Z,4.93
2018-05-01T18:47:21.221Z,5.30
2018-05-01T18:49:49.257Z,4.60
2018-05-01T18:52:18.096Z,4.20
2018-05-01T18:54:46.153Z,4.53
2018-05-01T18:57:14.246Z,4.33
2018-05-01T18:59:42.290Z,4.93
2018-05-01T19:02:10.356Z,5.17
2018-05-01T19:04:39.266Z,5.20
2018-05-01T19:07:07.213Z,4.27
2018-05-01T19:09:35.278Z,4.10
2018-05-01T19:12:04.102Z,4.23
2018-05-01T19:14:32.142Z,4.17
2018-05-01T19:17:00.558Z,3.87
2018-05-01T19:19:28.617Z,5.10
2018-05-01T19:21:56.675Z,4.37
2018-05-01T19:24:25.976Z,4.40
2018-05-01T19:26:54.035Z,5.20
2018-05-01T19:29:22.073Z,4.20
2018-05-01T19:31:50.112Z,4.40
2018-05-01T19:34:18.247Z,3.70
2018-05-01T19:36:46.598Z,3.50
2018-05-01T19:39:14.665Z,4.07
2018-05-01T19:41:42.702Z,3.83
2018-05-01T19:44:11.537Z,4.87
2018-05-01T19:46:39.589Z,3.70
2018-05-01T19:49:07.660Z,3.80
2018-05-01T19:51:35.690Z,4.10
2018-05-01T19:54:04.163Z,4.40
2018-05-01T19:56:32.236Z,4.07
2018-05-01T19:59:00.288Z,4.43
2018-05-01T20:01:29.075Z,3.37
2018-05-01T20:03:57.885Z,4.63
2018-05-01T20:06:25.951Z,5.23
2018-05-01T20:08:54.804Z,6.03
2018-05-01T20:11:22.794Z,4.07
2018-05-01T20:13:51.605Z,3.60
2018-05-01T20:16:19.648Z,4.90
2018-05-01T20:18:47.708Z,4.23
2018-05-01T20:21:15.762Z,4.90
2018-05-01T20:23:43.830Z,4.57
2018-05-01T20:26:11.913Z,12.73
2018-05-01T20:28:39.960Z,5.10
2018-05-01T20:31:08.019Z,5.03
2018-05-01T20:33:36.058Z,4.90
2018-05-01T20:36:04.101Z,6.10
2018-05-01T20:38:32.158Z,5.40
2018-05-01T20:41:00.234Z,5.43
2018-05-01T20:43:28.295Z,6.03
2018-05-01T20:45:56.387Z,5.20
2018-05-01T20:48:24.458Z,5.50
2018-05-01T20:50:52.511Z,6.00
2018-05-01T20:53:20.591Z,6.10
2018-05-01T20:55:48.654Z,6.10
2018-05-01T20:58:16.714Z,6.40
2018-05-01T21:00:44.753Z,5.87
2018-05-01T21:03:12.810Z,5.70
2018-05-01T21:05:40.854Z,5.73
2018-05-01T21:08:08.952Z,5.73
2018-05-01T21:10:38.207Z,6.17
2018-05-01T21:13:07.952Z,5.40
2018-05-01T21:15:39.792Z,5.80
2018-05-01T21:18:21.152Z,5.87
2018-05-01T21:20:52.194Z,4.90
2018-05-01T21:23:23.786Z,6.80
2018-05-01T21:25:57.652Z,5.97
2018-05-01T21:28:26.887Z,5.87
2018-05-01T21:30:56.920Z,4.67
2018-05-01T21:33:27.005Z,5.90
2018-05-01T21:35:56.601Z,5.00
2018-05-01T21:38:24.694Z,6.50
2018-05-01T21:40:52.769Z,7.00
2018-05-01T21:43:22.972Z,5.33
2018-05-01T21:45:51.049Z,5.40
2018-05-01T21:48:20.010Z,6.43
2018-05-01T21:50:52.656Z,5.60
2018-05-01T21:53:24.090Z,5.60
2018-05-01T21:55:56.600Z,5.73
2018-05-01T21:58:33.515Z,5.20
2018-05-01T22:01:03.866Z,5.53
2018-05-01T22:03:33.033Z,5.37
2018-05-01T22:06:01.094Z,5.50
2018-05-01T22:08:29.147Z,6.17
2018-05-01T22:10:57.229Z,6.77
2018-05-01T22:13:25.311Z,4.80
2018-05-01T22:15:53.369Z,5.43
2018-05-01T22:18:21.437Z,6.17
2018-05-01T22:20:49.527Z,5.23
2018-05-01T22:23:17.557Z,6.30
2018-05-01T22:25:45.680Z,5.83
2018-05-01T22:28:13.754Z,5.60
2018-05-01T22:30:41.811Z,5.90
2018-05-01T22:33:09.884Z,5.87
2018-05-01T22:35:37.950Z,6.50
2018-05-01T22:38:06.049Z,6.50
2018-05-01T22:40:34.131Z,6.13
2018-05-01T22:43:02.165Z,6.27
2018-05-01T22:45:30.231Z,6.10
2018-05-01T22:47:58.278Z,6.30
2018-05-01T22:50:26.359Z,6.03
2018-05-01T22:52:54.437Z,6.33
2018-05-01T22:55:22.487Z,7.17
2018-05-01T22:57:50.497Z,6.10
2018-05-01T23:00:19.296Z,6.27
2018-05-01T23:02:47.351Z,6.50
2018-05-01T23:05:15.398Z,6.67
2018-05-01T23:07:43.454Z,8.80
2018-05-01T23:10:11.511Z,6.93
2018-05-01T23:12:40.324Z,7.10
2018-05-01T23:15:08.437Z,7.23
2018-05-01T23:17:36.495Z,7.70
2018-05-01T23:20:04.522Z,7.00
2018-05-01T23:22:32.591Z,6.60
2018-05-01T23:25:01.434Z,9.77
2018-05-01T23:27:29.499Z,7.63
2018-05-01T23:29:57.559Z,7.10
2018-05-01T23:32:25.631Z,7.47
2018-05-01T23:34:54.251Z,9.00
2018-05-01T23:37:22.335Z,8.87
2018-05-01T23:39:50.406Z,7.57
2018-05-01T23:42:19.241Z,8.30
2018-05-01T23:44:47.363Z,8.93
2018-05-01T23:47:15.392Z,8.70
2018-05-01T23:49:43.446Z,8.00
2018-05-01T23:52:12.225Z,9.13
2018-05-01T23:54:41.285Z,8.77
2018-05-01T23:57:10.108Z,7.50
2018-05-01T23:59:38.279Z,9.70
